createdAt,value
2019-03-15T00:00:55.439Z,1.13
2019-03-15T00:03:23.002Z,1.83
2019-03-15T00:12:37.722Z,1.73
2019-03-15T00:15:05.620Z,1.70
2019-03-15T00:17:33.058Z,2.00
2019-03-15T00:23:18.247Z,1.37
2019-03-15T00:25:55.357Z,1.27
2019-03-15T00:28:23.160Z,1.83
2019-03-15T00:30:51.092Z,1.40
2019-03-15T00:33:19.053Z,2.03
2019-03-15T00:35:46.664Z,1.67
2019-03-15T00:38:14.235Z,1.80
2019-03-15T00:40:42.661Z,2.10
2019-03-15T00:43:11.126Z,1.70
2019-03-15T00:45:38.997Z,1.93
2019-03-15T00:48:06.675Z,2.10
2019-03-15T00:50:34.525Z,2.03
2019-03-15T00:53:02.134Z,3.23
2019-03-15T00:55:30.339Z,2.50
2019-03-15T00:57:57.916Z,1.53
2019-03-15T01:00:25.454Z,1.70
2019-03-15T01:02:53.138Z,2.43
2019-03-15T01:05:21.128Z,1.73
2019-03-15T01:07:48.611Z,1.77
2019-03-15T01:10:16.197Z,2.87
2019-03-15T01:12:44.125Z,2.20
2019-03-15T01:15:12.059Z,2.50
2019-03-15T01:17:39.592Z,2.50
2019-03-15T01:20:08.387Z,2.30
2019-03-15T01:22:35.814Z,1.70
2019-03-15T01:25:03.497Z,2.73
2019-03-15T01:27:31.064Z,1.93
2019-03-15T01:29:58.725Z,2.00
2019-03-15T01:32:27.023Z,2.40
2019-03-15T01:34:54.555Z,2.17
2019-03-15T01:37:22.136Z,2.03
2019-03-15T01:39:51.213Z,1.67
2019-03-15T01:42:18.790Z,2.50
2019-03-15T01:44:46.383Z,2.77
2019-03-15T01:50:31.733Z,2.00
2019-03-15T01:52:59.232Z,2.00
2019-03-15T01:55:27.186Z,2.03
2019-03-15T01:58:22.415Z,1.93
2019-03-15T02:00:49.978Z,2.37
2019-03-15T02:03:25.670Z,2.13
2019-03-15T02:05:53.286Z,2.20
2019-03-15T02:08:20.788Z,2.00
2019-03-15T02:10:49.490Z,2.70
2019-03-15T02:13:17.067Z,2.43
2019-03-15T02:15:44.622Z,1.97
2019-03-15T02:18:12.241Z,1.57
2019-03-15T02:20:39.802Z,1.47
2019-03-15T02:23:07.680Z,1.73
2019-03-15T02:25:35.257Z,1.60
2019-03-15T02:28:02.783Z,1.93
2019-03-15T02:30:30.335Z,1.40
2019-03-15T02:32:57.872Z,1.50
2019-03-15T02:35:25.740Z,1.60
2019-03-15T02:37:53.269Z,1.70
2019-03-15T02:40:20.817Z,1.57
2019-03-15T02:42:49.587Z,3.50
2019-03-15T02:45:17.159Z,2.23
2019-03-15T02:47:46.352Z,1.80
2019-03-15T02:50:14.149Z,1.43
2019-03-15T02:52:42.437Z,1.83
2019-03-15T02:55:11.458Z,2.03
2019-03-15T02:57:39.077Z,1.70
2019-03-15T03:00:06.627Z,2.03
2019-03-15T03:02:34.079Z,2.47
2019-03-15T03:05:01.701Z,1.63
2019-03-15T03:07:29.269Z,1.77
2019-03-15T03:09:56.832Z,1.77
2019-03-15T03:12:24.469Z,1.60
2019-03-15T03:14:52.339Z,1.40
2019-03-15T03:17:19.930Z,1.73
2019-03-15T03:19:47.592Z,1.60
2019-03-15T03:22:15.122Z,2.63
2019-03-15T03:24:42.780Z,2.03
2019-03-15T03:27:10.694Z,2.47
2019-03-15T03:29:38.530Z,2.00
2019-03-15T03:32:07.174Z,1.13
2019-03-15T03:34:34.994Z,1.70
2019-03-15T03:37:03.024Z,2.00
2019-03-15T03:39:30.978Z,2.10
2019-03-15T03:41:58.542Z,1.63
2019-03-15T03:44:26.415Z,1.63
2019-03-15T03:46:54.054Z,1.97
2019-03-15T03:49:21.915Z,2.33
2019-03-15T03:51:49.395Z,2.90
2019-03-15T03:54:17.347Z,1.80
2019-03-15T03:56:45.220Z,2.50
2019-03-15T03:59:13.210Z,2.77
2019-03-15T04:01:40.832Z,2.80
2019-03-15T04:04:08.382Z,3.67
2019-03-15T04:06:35.921Z,3.43
2019-03-15T04:09:06.389Z,3.47
2019-03-15T04:11:34.315Z,4.70
2019-03-15T04:14:02.187Z,5.00
2019-03-15T04:16:30.037Z,4.57
2019-03-15T04:18:57.632Z,6.93
2019-03-15T04:21:25.218Z,5.77
2019-03-15T04:23:52.768Z,8.77
2019-03-15T04:26:20.801Z,8.47
2019-03-15T04:28:48.379Z,8.80
2019-03-15T04:31:15.898Z,9.57
2019-03-15T04:33:43.383Z,10.20
2019-03-15T04:36:11.515Z,9.93
2019-03-15T04:38:39.087Z,11.23
2019-03-15T04:41:07.210Z,10.80
2019-03-15T04:43:35.090Z,13.00
2019-03-15T04:46:02.620Z,13.93
2019-03-15T04:48:30.283Z,12.37
2019-03-15T04:50:58.215Z,13.93
2019-03-15T04:53:25.818Z,14.67
2019-03-15T04:55:53.380Z,16.60
2019-03-15T04:58:21.255Z,16.23
2019-03-15T05:00:48.780Z,15.60
2019-03-15T05:03:16.389Z,15.63
2019-03-15T05:05:44.228Z,15.97
2019-03-15T05:08:11.792Z,15.10
2019-03-15T05:10:44.327Z,18.07
2019-03-15T05:13:12.237Z,16.40
2019-03-15T05:15:39.832Z,17.53
2019-03-15T05:18:07.324Z,16.60
2019-03-15T05:20:36.467Z,17.97
2019-03-15T05:23:03.998Z,16.07
2019-03-15T05:25:31.562Z,18.63
2019-03-15T05:27:59.831Z,17.47
2019-03-15T05:30:27.674Z,16.40
2019-03-15T05:32:55.230Z,18.10
2019-03-15T05:35:24.067Z,17.63
2019-03-15T05:37:51.581Z,17.37
2019-03-15T05:40:19.125Z,18.70
2019-03-15T05:42:46.743Z,17.87
2019-03-15T05:45:14.368Z,22.07
2019-03-15T05:47:41.866Z,20.97
2019-03-15T05:50:27.337Z,22.67
2019-03-15T05:52:54.873Z,21.33
2019-03-15T05:55:22.432Z,24.80
2019-03-15T05:58:08.152Z,24.67
2019-03-15T06:00:35.723Z,20.53
2019-03-15T06:03:03.619Z,20.67
2019-03-15T06:06:06.771Z,16.77
2019-03-15T06:08:34.320Z,16.27
2019-03-15T06:11:01.871Z,13.27
2019-03-15T06:13:29.858Z,11.20
2019-03-15T06:15:57.363Z,12.37
2019-03-15T06:18:24.904Z,10.97
2019-03-15T06:20:52.862Z,9.40
2019-03-15T06:23:20.299Z,8.20
2019-03-15T06:25:47.869Z,7.40
2019-03-15T06:28:15.408Z,7.43
2019-03-15T06:30:42.966Z,8.00
2019-03-15T06:33:10.515Z,9.30
2019-03-15T06:35:38.466Z,8.00
2019-03-15T06:38:06.037Z,8.80
2019-03-15T06:40:33.578Z,10.27
2019-03-15T06:43:01.482Z,10.80
2019-03-15T06:45:29.310Z,9.50
2019-03-15T06:47:56.802Z,10.30
2019-03-15T06:50:24.334Z,9.67
2019-03-15T06:52:52.229Z,13.10
2019-03-15T06:55:21.093Z,11.03
2019-03-15T06:57:49.459Z,11.93
2019-03-15T07:00:17.219Z,9.57
2019-03-15T07:02:46.044Z,9.87
2019-03-15T07:05:13.819Z,10.40
2019-03-15T07:07:41.704Z,11.53
2019-03-15T07:10:09.272Z,10.43
2019-03-15T07:12:39.865Z,11.23
2019-03-15T07:15:06.201Z,10.37
2019-03-15T07:17:34.126Z,9.83
2019-03-15T07:20:01.664Z,14.50
2019-03-15T07:22:29.525Z,14.43
2019-03-15T07:24:57.314Z,15.00
2019-03-15T07:27:24.773Z,12.13
2019-03-15T07:29:52.365Z,13.10
2019-03-15T07:32:19.889Z,14.10
2019-03-15T07:34:47.374Z,12.07
2019-03-15T07:37:14.918Z,12.67
2019-03-15T07:39:42.697Z,9.80
2019-03-15T07:42:10.649Z,8.00
2019-03-15T07:44:38.225Z,8.20
2019-03-15T07:47:05.764Z,10.87
2019-03-15T07:49:33.380Z,7.90
2019-03-15T07:52:03.838Z,8.07
2019-03-15T07:54:37.873Z,9.77
2019-03-15T07:56:59.662Z,10.37
2019-03-15T07:59:28.045Z,7.73
2019-03-15T08:01:56.567Z,9.63
2019-03-15T08:04:24.039Z,9.37
2019-03-15T08:06:51.508Z,9.67
2019-03-15T08:09:19.938Z,9.43
2019-03-15T08:11:47.523Z,9.87
2019-03-15T08:14:15.662Z,11.33
2019-03-15T08:16:43.251Z,8.30
2019-03-15T08:19:10.843Z,9.10
2019-03-15T08:21:38.415Z,9.50
2019-03-15T08:24:06.322Z,8.53
2019-03-15T08:26:34.182Z,8.20
2019-03-15T08:29:01.728Z,8.53
2019-03-15T08:31:29.602Z,8.53
2019-03-15T08:33:57.143Z,9.25
2019-03-15T08:36:24.694Z,7.17
2019-03-15T08:38:52.242Z,7.07
2019-03-15T08:41:19.801Z,8.37
2019-03-15T08:43:47.715Z,7.43
2019-03-15T08:46:15.395Z,8.13
2019-03-15T08:48:43.128Z,7.30
2019-03-15T08:51:11.065Z,7.63
2019-03-15T08:53:38.767Z,7.43
2019-03-15T08:56:06.664Z,7.67
2019-03-15T08:58:34.209Z,7.63
2019-03-15T09:01:01.782Z,6.53
2019-03-15T09:03:29.317Z,6.57
2019-03-15T09:05:56.929Z,5.87
2019-03-15T09:08:25.165Z,6.57
2019-03-15T09:10:52.753Z,5.80
2019-03-15T09:13:20.293Z,5.53
2019-03-15T09:15:47.876Z,6.23
2019-03-15T09:18:15.488Z,5.03
2019-03-15T09:20:44.103Z,4.57
2019-03-15T09:23:11.663Z,5.37
2019-03-15T09:25:39.592Z,5.30
2019-03-15T09:28:07.394Z,6.13
2019-03-15T09:30:34.935Z,5.13
2019-03-15T09:33:03.282Z,5.33
2019-03-15T09:35:31.435Z,5.30
2019-03-15T09:38:01.015Z,5.17
2019-03-15T09:40:28.550Z,6.23
2019-03-15T09:42:59.769Z,5.77
2019-03-15T09:45:26.347Z,6.73
2019-03-15T09:47:53.898Z,4.90
2019-03-15T09:50:33.911Z,5.13
2019-03-15T09:52:52.254Z,4.57
2019-03-15T09:55:32.222Z,6.40
2019-03-15T09:57:49.126Z,5.90
2019-03-15T10:00:17.361Z,4.63
2019-03-15T10:02:45.066Z,6.43
2019-03-15T10:05:13.218Z,4.70
2019-03-15T10:07:43.290Z,4.17
2019-03-15T10:10:13.857Z,5.20
2019-03-15T10:12:40.972Z,4.47
2019-03-15T10:15:09.336Z,5.30
2019-03-15T10:17:36.835Z,4.60
2019-03-15T10:20:05.237Z,4.77
2019-03-15T10:22:32.812Z,4.13
2019-03-15T10:25:00.377Z,4.77
2019-03-15T10:27:28.257Z,3.73
2019-03-15T10:29:56.193Z,3.67
2019-03-15T10:32:23.749Z,3.63
2019-03-15T10:34:51.497Z,3.33
2019-03-15T10:37:19.388Z,3.67
2019-03-15T10:39:46.947Z,4.10
2019-03-15T10:42:14.515Z,4.43
2019-03-15T10:44:42.101Z,3.87
2019-03-15T10:47:09.656Z,4.63
2019-03-15T10:49:37.617Z,3.63
2019-03-15T10:52:05.171Z,3.07
2019-03-15T10:54:32.701Z,3.20
2019-03-15T10:57:00.271Z,3.37
2019-03-15T10:59:27.869Z,3.17
2019-03-15T11:01:55.415Z,2.63
2019-03-15T11:04:22.952Z,3.40
2019-03-15T11:06:50.536Z,3.30
2019-03-15T11:09:18.105Z,2.63
2019-03-15T11:11:45.795Z,2.73
2019-03-15T11:14:13.266Z,2.13
2019-03-15T11:16:40.864Z,2.90
2019-03-15T11:19:08.467Z,2.10
2019-03-15T11:21:36.241Z,2.63
2019-03-15T11:24:03.926Z,2.77
2019-03-15T11:26:46.482Z,2.20
2019-03-15T11:29:14.134Z,2.00
2019-03-15T11:31:41.691Z,2.90
2019-03-15T11:34:09.397Z,2.50
2019-03-15T11:36:36.942Z,1.83
2019-03-15T11:39:05.890Z,2.97
2019-03-15T11:41:33.491Z,2.03
2019-03-15T11:44:01.075Z,2.97
2019-03-15T11:46:28.660Z,2.67
2019-03-15T11:48:56.221Z,2.57
2019-03-15T11:51:23.790Z,2.53
2019-03-15T11:53:51.659Z,1.80
2019-03-15T11:56:26.931Z,2.70
2019-03-15T11:58:49.109Z,2.73
2019-03-15T12:01:16.680Z,2.80
2019-03-15T12:03:52.859Z,2.67
2019-03-15T12:06:13.555Z,3.10
2019-03-15T12:08:41.193Z,2.67
2019-03-15T12:11:09.024Z,3.23
2019-03-15T12:13:36.554Z,1.90
2019-03-15T12:16:04.449Z,2.47
2019-03-15T12:18:32.063Z,3.23
2019-03-15T12:20:59.637Z,3.40
2019-03-15T12:23:27.557Z,2.47
2019-03-15T12:25:55.027Z,2.30
2019-03-15T12:28:22.813Z,2.30
2019-03-15T12:31:10.000Z,2.03
2019-03-15T12:33:37.587Z,2.23
2019-03-15T12:36:05.475Z,3.30
2019-03-15T12:38:33.722Z,2.53
2019-03-15T12:41:01.267Z,2.60
2019-03-15T12:43:29.120Z,2.87
2019-03-15T12:45:56.580Z,2.27
2019-03-15T12:48:24.147Z,3.60
2019-03-15T12:50:51.700Z,2.73
2019-03-15T12:53:19.272Z,2.13
2019-03-15T12:55:46.801Z,2.73
2019-03-15T12:58:14.357Z,2.97
2019-03-15T13:00:42.260Z,4.10
2019-03-15T13:03:09.828Z,2.80
2019-03-15T13:05:37.747Z,3.13
2019-03-15T13:08:05.637Z,2.67
2019-03-15T13:10:33.161Z,2.53
2019-03-15T13:13:00.631Z,3.27
2019-03-15T13:15:28.174Z,2.30
2019-03-15T13:17:55.672Z,2.57
2019-03-15T13:20:23.527Z,2.23
2019-03-15T13:22:51.025Z,2.97
2019-03-15T13:25:18.469Z,3.27
2019-03-15T13:27:46.074Z,3.07
2019-03-15T13:30:13.914Z,1.83
2019-03-15T13:32:41.503Z,2.97
2019-03-15T13:35:09.017Z,2.30
2019-03-15T13:37:37.873Z,2.60
2019-03-15T13:40:05.792Z,2.27
2019-03-15T13:42:33.306Z,2.27
2019-03-15T13:45:01.069Z,3.07
2019-03-15T13:47:28.604Z,2.80
2019-03-15T13:49:56.169Z,2.23
2019-03-15T13:52:23.718Z,1.90
2019-03-15T13:54:51.280Z,1.73
2019-03-15T13:57:21.517Z,3.13
2019-03-15T13:59:49.284Z,2.07
2019-03-15T14:02:16.895Z,2.60
2019-03-15T14:04:44.427Z,3.50
2019-03-15T14:07:12.478Z,1.93
2019-03-15T14:09:40.008Z,2.10
2019-03-15T14:12:07.901Z,3.10
2019-03-15T14:14:35.459Z,1.97
2019-03-15T14:17:03.020Z,2.83
2019-03-15T14:19:30.510Z,2.63
2019-03-15T14:21:58.340Z,2.67
2019-03-15T14:24:26.210Z,2.73
2019-03-15T14:26:53.885Z,2.20
2019-03-15T14:29:21.534Z,3.27
2019-03-15T14:31:49.380Z,3.60
2019-03-15T14:34:17.206Z,3.27
2019-03-15T14:36:44.815Z,2.97
2019-03-15T14:39:12.695Z,3.97
2019-03-15T14:41:40.553Z,2.70
2019-03-15T14:44:08.086Z,2.80
2019-03-15T14:46:35.773Z,2.73
2019-03-15T14:49:03.376Z,3.33
2019-03-15T14:51:30.909Z,3.60
2019-03-15T14:53:58.516Z,3.33
2019-03-15T14:56:26.053Z,3.60
2019-03-15T14:58:54.023Z,3.47
2019-03-15T15:01:21.543Z,2.70
2019-03-15T15:03:49.046Z,5.00
2019-03-15T15:06:16.666Z,3.77
2019-03-15T15:08:44.228Z,4.77
2019-03-15T15:11:11.781Z,3.57
2019-03-15T15:13:39.354Z,3.07
2019-03-15T15:16:07.206Z,3.87
2019-03-15T15:18:34.785Z,3.80
2019-03-15T15:21:02.368Z,3.53
2019-03-15T15:23:30.189Z,3.73
2019-03-15T15:25:58.468Z,3.23
2019-03-15T15:28:25.996Z,3.37
2019-03-15T15:30:53.942Z,2.67
2019-03-15T15:33:21.587Z,3.77
2019-03-15T15:35:49.181Z,3.90
2019-03-15T15:38:16.730Z,3.47
2019-03-15T15:40:44.326Z,3.60
2019-03-15T15:43:12.307Z,3.97
2019-03-15T15:45:39.873Z,3.60
2019-03-15T15:48:07.423Z,3.40
2019-03-15T15:50:34.973Z,2.83
2019-03-15T15:53:03.710Z,3.63
2019-03-15T15:55:31.522Z,2.40
2019-03-15T15:57:59.049Z,3.50
2019-03-15T16:00:26.603Z,3.30
2019-03-15T16:02:54.257Z,4.10
2019-03-15T16:05:22.103Z,4.63
2019-03-15T16:07:49.732Z,4.47
2019-03-15T16:10:18.491Z,4.23
2019-03-15T16:12:46.397Z,3.30
2019-03-15T16:15:13.984Z,3.97
2019-03-15T16:17:45.512Z,3.67
2019-03-15T16:20:12.538Z,6.10
2019-03-15T16:22:40.000Z,4.27
2019-03-15T16:25:08.619Z,3.60
2019-03-15T16:27:36.161Z,3.50
2019-03-15T16:30:04.255Z,4.20
2019-03-15T16:32:32.069Z,5.00
2019-03-15T16:34:59.890Z,3.53
2019-03-15T16:37:27.443Z,4.50
2019-03-15T16:39:56.417Z,4.07
2019-03-15T16:42:24.680Z,4.43
2019-03-15T16:44:52.238Z,3.70
2019-03-15T16:47:20.106Z,4.37
2019-03-15T16:49:47.690Z,4.17
2019-03-15T16:52:15.260Z,4.03
2019-03-15T16:54:42.828Z,4.80
2019-03-15T16:57:10.752Z,6.40
2019-03-15T16:59:38.334Z,5.40
2019-03-15T17:02:06.461Z,6.53
2019-03-15T17:04:34.044Z,6.13
2019-03-15T17:07:01.577Z,6.50
2019-03-15T17:09:29.486Z,6.23
2019-03-15T17:11:57.006Z,8.77
2019-03-15T17:14:25.843Z,7.07
2019-03-15T17:16:53.641Z,7.80
2019-03-15T17:19:21.441Z,7.80
2019-03-15T17:21:49.400Z,8.60
2019-03-15T17:24:17.280Z,7.70
2019-03-15T17:26:44.862Z,8.07
2019-03-15T17:29:12.384Z,7.53
2019-03-15T17:31:40.007Z,6.90
2019-03-15T17:34:07.566Z,7.40
2019-03-15T17:36:35.483Z,7.80
2019-03-15T17:39:03.721Z,7.70
2019-03-15T17:41:31.286Z,7.73
2019-03-15T17:43:58.853Z,7.93
2019-03-15T17:46:26.739Z,6.97
2019-03-15T17:48:54.298Z,7.27
2019-03-15T17:51:22.178Z,8.03
2019-03-15T17:53:49.720Z,7.40
2019-03-15T17:56:17.236Z,6.83
2019-03-15T17:58:45.137Z,8.37
2019-03-15T18:01:12.702Z,7.13
2019-03-15T18:03:40.294Z,8.87
2019-03-15T18:06:09.322Z,9.60
2019-03-15T18:08:36.943Z,10.40
2019-03-15T18:11:04.506Z,9.23
2019-03-15T18:13:32.076Z,10.70
2019-03-15T18:15:59.638Z,9.90
2019-03-15T18:18:27.554Z,9.07
2019-03-15T18:20:55.165Z,9.90
2019-03-15T18:23:22.776Z,10.47
2019-03-15T18:25:50.683Z,10.33
2019-03-15T18:28:18.166Z,10.30
2019-03-15T18:30:45.752Z,9.97
2019-03-15T18:33:13.279Z,11.27
2019-03-15T18:35:40.885Z,11.63
2019-03-15T18:38:08.518Z,12.93
2019-03-15T18:40:36.390Z,12.20
2019-03-15T18:43:03.971Z,13.23
2019-03-15T18:45:31.829Z,12.50
2019-03-15T18:47:59.805Z,14.13
2019-03-15T18:50:27.356Z,13.47
2019-03-15T18:52:54.926Z,13.03
2019-03-15T18:55:22.560Z,12.07
2019-03-15T18:57:50.121Z,13.27
2019-03-15T19:00:17.795Z,13.97
2019-03-15T19:02:45.774Z,11.37
2019-03-15T19:05:13.334Z,9.10
2019-03-15T19:07:40.913Z,7.03
2019-03-15T19:10:09.713Z,7.13
2019-03-15T19:12:37.368Z,6.80
2019-03-15T19:15:05.202Z,8.27
2019-03-15T19:17:33.082Z,7.60
2019-03-15T19:20:00.651Z,8.57
2019-03-15T19:22:28.235Z,8.93
2019-03-15T19:24:55.779Z,5.30
2019-03-15T19:27:23.332Z,5.10
2019-03-15T19:29:54.095Z,4.73
2019-03-15T19:32:20.261Z,4.87
2019-03-15T19:34:47.821Z,4.77
2019-03-15T19:37:15.684Z,4.60
2019-03-15T19:39:43.253Z,3.87
2019-03-15T19:42:10.776Z,3.17
2019-03-15T19:44:38.397Z,0.90
2019-03-15T19:47:05.847Z,0.80
2019-03-15T19:49:33.438Z,1.03
2019-03-15T19:52:00.988Z,1.70
2019-03-15T19:54:31.790Z,1.10
2019-03-15T19:56:58.274Z,1.40
2019-03-15T19:59:25.867Z,2.17
2019-03-15T20:01:53.658Z,1.70
2019-03-15T20:04:21.192Z,2.63
2019-03-15T20:06:49.961Z,2.87
2019-03-15T20:09:17.549Z,3.07
2019-03-15T20:11:45.035Z,3.33
2019-03-15T20:14:12.586Z,2.17
2019-03-15T20:16:40.045Z,1.47
2019-03-15T20:19:07.978Z,2.50
2019-03-15T20:21:35.443Z,2.30
2019-03-15T20:24:03.511Z,2.60
2019-03-15T20:26:31.092Z,1.70
2019-03-15T20:28:59.004Z,1.63
2019-03-15T20:31:26.556Z,1.50
2019-03-15T20:33:54.464Z,2.70
2019-03-15T20:36:22.058Z,2.60
2019-03-15T20:38:49.615Z,4.23
2019-03-15T20:41:19.565Z,4.07
2019-03-15T20:43:46.613Z,4.23
2019-03-15T20:46:15.875Z,3.70
2019-03-15T20:48:43.954Z,2.70
2019-03-15T20:51:11.399Z,4.33
2019-03-15T20:53:38.892Z,3.60
2019-03-15T20:56:06.435Z,5.53
2019-03-15T20:58:34.029Z,4.77
2019-03-15T21:01:01.678Z,4.83
2019-03-15T21:03:29.178Z,5.30
2019-03-15T21:05:56.726Z,4.37
2019-03-15T21:08:24.226Z,4.87
2019-03-15T21:10:52.092Z,3.80
2019-03-15T21:13:19.702Z,3.80
2019-03-15T21:15:47.281Z,3.47
2019-03-15T21:18:14.957Z,2.70
2019-03-15T21:20:42.626Z,3.17
2019-03-15T21:23:10.494Z,3.10
2019-03-15T21:25:38.073Z,2.57
2019-03-15T21:28:05.526Z,2.73
2019-03-15T21:30:33.104Z,2.03
2019-03-15T21:33:01.803Z,2.23
2019-03-15T21:35:29.399Z,2.30
2019-03-15T21:37:56.951Z,1.40
2019-03-15T21:40:24.845Z,1.63
2019-03-15T21:42:52.406Z,1.60
2019-03-15T21:45:20.110Z,1.77
2019-03-15T21:47:48.859Z,0.90
2019-03-15T21:50:16.419Z,0.93
2019-03-15T21:52:43.998Z,1.23
2019-03-15T21:55:11.574Z,1.23
2019-03-15T21:57:39.067Z,1.30
2019-03-15T22:00:07.401Z,1.70
2019-03-15T22:02:35.150Z,1.40
2019-03-15T22:05:02.612Z,0.90
2019-03-15T22:07:30.180Z,1.13
2019-03-15T22:09:57.773Z,0.93
2019-03-15T22:12:25.322Z,1.03
2019-03-15T22:14:52.907Z,0.90
2019-03-15T22:17:20.472Z,0.80
2019-03-15T22:19:48.055Z,1.70
2019-03-15T22:22:15.931Z,0.73
2019-03-15T22:24:43.821Z,0.90
2019-03-15T22:27:11.608Z,2.10
2019-03-15T22:29:52.655Z,1.67
2019-03-15T22:32:08.820Z,0.63
2019-03-15T22:34:36.369Z,0.90
2019-03-15T22:37:03.927Z,0.80
2019-03-15T22:39:31.489Z,1.10
2019-03-15T22:41:59.018Z,1.53
2019-03-15T22:44:26.573Z,1.33
2019-03-15T22:46:54.395Z,1.07
2019-03-15T22:49:22.041Z,1.30
2019-03-15T22:51:49.584Z,0.80
2019-03-15T22:54:17.162Z,0.77
2019-03-15T22:56:44.701Z,0.80
2019-03-15T22:59:12.303Z,0.77
2019-03-15T23:01:39.880Z,0.90
2019-03-15T23:04:07.706Z,1.30
2019-03-15T23:06:35.317Z,1.37
2019-03-15T23:09:04.822Z,0.90
2019-03-15T23:11:32.369Z,0.57
2019-03-15T23:14:00.292Z,0.97
2019-03-15T23:16:27.751Z,0.70
2019-03-15T23:18:55.280Z,0.70
2019-03-15T23:21:23.270Z,0.90
2019-03-15T23:23:50.809Z,0.60
2019-03-15T23:26:18.914Z,1.00
2019-03-15T23:28:47.382Z,0.70
2019-03-15T23:31:17.510Z,1.43
2019-03-15T23:33:45.030Z,1.03
2019-03-15T23:36:12.885Z,0.83
2019-03-15T23:38:40.790Z,1.10
2019-03-15T23:41:08.276Z,0.80
2019-03-15T23:43:35.844Z,0.97
2019-03-15T23:46:03.291Z,1.23
2019-03-15T23:48:32.981Z,1.27
2019-03-15T23:51:00.911Z,0.70
2019-03-15T23:53:28.475Z,0.83
2019-03-15T23:55:56.037Z,1.43
2019-03-15T23:58:23.587Z,1.00
